createdAt,value
2022-09-17T00:00:59.594Z,45.22
2022-09-17T00:03:30.837Z,45.26
2022-09-17T00:06:06.322Z,45.23
2022-09-17T00:08:42.007Z,44.50
2022-09-17T00:11:16.151Z,44.83
2022-09-17T00:13:47.491Z,45.21
2022-09-17T00:16:28.544Z,44.62
2022-09-17T00:18:59.711Z,44.85
2022-09-17T00:21:30.701Z,45.04
2022-09-17T00:24:06.292Z,45.09
2022-09-17T00:26:37.593Z,44.65
2022-09-17T00:29:09.115Z,44.64
2022-09-17T00:31:40.234Z,44.68
2022-09-17T00:34:12.258Z,45.12
2022-09-17T00:36:43.790Z,45.25
2022-09-17T00:39:16.889Z,44.64
2022-09-17T00:41:47.234Z,44.63
2022-09-17T00:44:51.257Z,44.49
2022-09-17T00:47:27.884Z,45.37
2022-09-17T00:50:03.826Z,45.11
2022-09-17T00:52:42.110Z,44.62
2022-09-17T00:55:24.159Z,45.16
2022-09-17T00:57:59.176Z,45.25
2022-09-17T01:00:30.243Z,45.33
2022-09-17T01:03:01.612Z,44.98
2022-09-17T01:05:42.979Z,45.29
2022-09-17T01:08:27.801Z,45.37
2022-09-17T01:11:42.076Z,44.76
2022-09-17T01:14:41.065Z,44.73
2022-09-17T01:17:27.920Z,45.35
2022-09-17T01:20:45.715Z,45.37
2022-09-17T01:23:46.563Z,44.81
2022-09-17T01:26:52.946Z,44.87
2022-09-17T01:29:47.844Z,44.88
2022-09-17T01:32:27.549Z,45.38
2022-09-17T01:35:06.969Z,44.82
2022-09-17T01:37:44.889Z,45.03
2022-09-17T01:40:27.095Z,45.35
2022-09-17T01:43:06.928Z,44.80
2022-09-17T01:45:44.966Z,45.35
2022-09-17T01:48:20.475Z,44.83
2022-09-17T01:50:57.739Z,44.84
2022-09-17T01:53:37.805Z,44.87
2022-09-17T01:56:11.492Z,45.19
2022-09-17T01:58:50.863Z,45.48
2022-09-17T02:01:26.865Z,44.94
2022-09-17T02:04:07.437Z,44.89
2022-09-17T02:06:42.402Z,45.19
2022-09-17T02:09:24.079Z,45.61
2022-09-17T02:12:00.150Z,45.09
2022-09-17T02:14:37.435Z,44.97
2022-09-17T02:17:17.367Z,45.17
2022-09-17T02:19:50.768Z,45.20
2022-09-17T02:22:31.469Z,45.18
2022-09-17T02:25:10.889Z,45.67
2022-09-17T02:27:55.006Z,45.71
2022-09-17T02:30:25.685Z,45.03
2022-09-17T02:32:57.271Z,45.10
2022-09-17T02:35:29.767Z,45.28
2022-09-17T02:38:00.267Z,45.83
2022-09-17T02:40:38.366Z,45.62
2022-09-17T02:43:25.738Z,45.47
2022-09-17T02:46:17.141Z,45.37
2022-09-17T02:49:27.416Z,45.84
2022-09-17T02:52:10.406Z,45.37
2022-09-17T02:54:55.021Z,45.91
2022-09-17T02:57:33.000Z,45.38
2022-09-17T03:00:14.640Z,45.81
2022-09-17T03:02:52.674Z,45.41
2022-09-17T03:05:26.874Z,46.06
2022-09-17T03:08:02.191Z,45.49
2022-09-17T03:10:34.630Z,45.34
2022-09-17T03:13:05.090Z,45.99
2022-09-17T03:15:35.656Z,45.52
2022-09-17T03:18:05.924Z,45.77
2022-09-17T03:20:36.330Z,45.67
2022-09-17T03:23:08.766Z,45.37
2022-09-17T03:25:39.760Z,45.53
2022-09-17T03:28:10.303Z,45.67
2022-09-17T03:30:40.918Z,45.93
2022-09-17T03:33:11.414Z,45.82
2022-09-17T03:35:45.971Z,45.52
2022-09-17T03:38:18.639Z,45.97
2022-09-17T03:41:00.146Z,45.67
2022-09-17T03:43:30.682Z,46.16
2022-09-17T03:46:01.159Z,45.93
2022-09-17T03:48:32.809Z,46.21
2022-09-17T03:51:03.297Z,46.10
2022-09-17T03:53:35.649Z,45.81
2022-09-17T03:56:08.961Z,46.35
2022-09-17T03:58:39.485Z,45.70
2022-09-17T04:01:10.333Z,45.84
2022-09-17T04:03:40.803Z,46.11
2022-09-17T04:06:11.404Z,45.87
2022-09-17T04:08:44.130Z,45.87
2022-09-17T04:11:14.608Z,46.21
2022-09-17T04:13:44.811Z,45.92
2022-09-17T04:16:15.800Z,45.72
2022-09-17T04:18:45.672Z,46.00
2022-09-17T04:21:16.110Z,45.71
2022-09-17T04:23:48.464Z,46.18
2022-09-17T04:26:18.957Z,46.51
2022-09-17T04:28:49.479Z,45.87
2022-09-17T04:31:19.635Z,45.83
2022-09-17T04:33:50.101Z,46.38
2022-09-17T04:36:20.919Z,46.61
2022-09-17T04:38:53.343Z,46.57
2022-09-17T04:41:23.408Z,46.01
2022-09-17T04:43:53.756Z,46.74
2022-09-17T04:46:24.160Z,46.78
2022-09-17T04:48:54.542Z,46.72
2022-09-17T04:51:24.812Z,46.78
2022-09-17T04:53:57.107Z,46.37
2022-09-17T04:56:27.569Z,46.97
2022-09-17T04:58:57.389Z,46.32
2022-09-17T05:01:28.527Z,46.28
2022-09-17T05:03:59.174Z,46.88
2022-09-17T05:06:29.574Z,46.54
2022-09-17T05:09:02.610Z,46.75
2022-09-17T05:11:33.442Z,46.79
2022-09-17T05:14:03.629Z,46.50
2022-09-17T05:16:34.176Z,46.80
2022-09-17T05:19:04.791Z,46.81
2022-09-17T05:21:35.066Z,46.23
2022-09-17T05:24:08.593Z,46.54
2022-09-17T05:26:38.995Z,46.78
2022-09-17T05:29:10.182Z,46.75
2022-09-17T05:31:40.661Z,46.43
2022-09-17T05:34:11.365Z,46.61
2022-09-17T05:36:41.809Z,46.40
2022-09-17T05:39:14.346Z,46.55
2022-09-17T05:41:44.752Z,46.37
2022-09-17T05:44:18.073Z,46.37
2022-09-17T05:46:48.871Z,46.59
2022-09-17T05:49:19.386Z,46.63
2022-09-17T05:51:50.264Z,46.58
2022-09-17T05:54:22.346Z,46.04
2022-09-17T05:56:57.384Z,46.52
2022-09-17T05:59:28.475Z,45.91
2022-09-17T06:01:59.348Z,45.97
2022-09-17T06:04:34.056Z,45.94
2022-09-17T06:07:08.949Z,45.84
2022-09-17T06:09:41.913Z,46.38
2022-09-17T06:12:12.140Z,45.84
2022-09-17T06:14:42.271Z,45.85
2022-09-17T06:17:12.699Z,45.93
2022-09-17T06:19:43.164Z,45.48
2022-09-17T06:22:13.290Z,45.46
2022-09-17T06:24:45.736Z,45.40
2022-09-17T06:27:15.832Z,45.23
2022-09-17T06:29:46.390Z,45.84
2022-09-17T06:32:17.379Z,45.90
2022-09-17T06:34:48.339Z,45.26
2022-09-17T06:37:18.545Z,45.54
2022-09-17T06:39:51.047Z,45.01
2022-09-17T06:42:21.505Z,45.61
2022-09-17T06:44:51.931Z,45.33
2022-09-17T06:47:21.996Z,45.15
2022-09-17T06:49:52.606Z,45.08
2022-09-17T06:52:22.940Z,45.27
2022-09-17T06:54:55.486Z,45.71
2022-09-17T06:57:26.032Z,45.57
2022-09-17T06:59:56.038Z,45.46
2022-09-17T07:02:26.768Z,45.23
2022-09-17T07:04:56.930Z,44.80
2022-09-17T07:07:27.440Z,44.77
2022-09-17T07:09:59.936Z,45.07
2022-09-17T07:12:30.265Z,44.83
2022-09-17T07:15:00.724Z,45.22
2022-09-17T07:17:32.961Z,44.58
2022-09-17T07:20:03.341Z,44.83
2022-09-17T07:22:33.684Z,44.46
2022-09-17T07:25:06.491Z,44.45
2022-09-17T07:27:36.578Z,44.70
2022-09-17T07:30:08.366Z,44.85
2022-09-17T07:32:38.501Z,44.74
2022-09-17T07:35:09.445Z,44.19
2022-09-17T07:37:40.063Z,44.51
2022-09-17T07:40:14.031Z,44.41
2022-09-17T07:42:44.442Z,44.61
2022-09-17T07:45:14.915Z,44.33
2022-09-17T07:47:45.326Z,44.43
2022-09-17T07:50:15.816Z,43.87
2022-09-17T07:52:50.027Z,43.75
2022-09-17T07:55:24.228Z,44.04
2022-09-17T07:57:58.646Z,43.71
2022-09-17T08:00:29.302Z,44.14
2022-09-17T08:03:01.700Z,43.81
2022-09-17T08:05:32.230Z,43.48
2022-09-17T08:08:03.162Z,43.47
2022-09-17T08:10:36.662Z,43.59
2022-09-17T08:13:07.495Z,43.38
2022-09-17T08:15:38.033Z,43.11
2022-09-17T08:18:08.236Z,43.31
2022-09-17T08:20:38.108Z,43.55
2022-09-17T08:23:08.528Z,42.95
2022-09-17T08:25:40.656Z,42.95
2022-09-17T08:28:10.659Z,42.99
2022-09-17T08:30:41.056Z,42.80
2022-09-17T08:33:10.934Z,43.15
2022-09-17T08:35:41.381Z,43.22
2022-09-17T08:38:11.650Z,43.20
2022-09-17T08:41:04.343Z,42.95
2022-09-17T08:43:42.905Z,42.86
2022-09-17T08:46:14.037Z,42.83
2022-09-17T08:48:52.001Z,43.11
2022-09-17T08:51:37.234Z,42.60
2022-09-17T08:54:21.018Z,42.25
2022-09-17T08:57:09.405Z,42.30
2022-09-17T08:59:52.365Z,42.48
2022-09-17T09:02:42.492Z,42.58
2022-09-17T09:05:19.900Z,42.35
2022-09-17T09:07:57.731Z,42.32
2022-09-17T09:10:34.124Z,42.66
2022-09-17T09:13:08.116Z,42.18
2022-09-17T09:15:46.543Z,42.34
2022-09-17T09:18:24.536Z,41.88
2022-09-17T09:21:01.486Z,42.16
2022-09-17T09:23:50.023Z,42.09
2022-09-17T09:26:23.268Z,41.90
2022-09-17T09:29:29.266Z,42.08
2022-09-17T09:32:20.991Z,41.86
2022-09-17T09:34:52.751Z,41.96
2022-09-17T09:37:30.844Z,41.62
2022-09-17T09:40:20.578Z,42.00
2022-09-17T09:42:51.358Z,41.74
2022-09-17T09:45:39.783Z,41.85
2022-09-17T09:48:25.333Z,42.01
2022-09-17T09:51:17.762Z,41.87
2022-09-17T09:54:10.967Z,41.46
2022-09-17T09:56:59.575Z,41.59
2022-09-17T09:59:30.365Z,41.83
2022-09-17T10:02:02.437Z,41.94
2022-09-17T10:04:33.598Z,41.38
2022-09-17T10:07:08.015Z,41.50
2022-09-17T10:09:41.270Z,41.25
2022-09-17T10:12:21.992Z,41.27
2022-09-17T10:15:06.146Z,41.88
2022-09-17T10:17:38.061Z,41.57
2022-09-17T10:20:25.964Z,41.63
2022-09-17T10:22:56.650Z,41.54
2022-09-17T10:25:33.354Z,41.34
2022-09-17T10:28:08.965Z,41.44
2022-09-17T10:30:39.325Z,41.23
2022-09-17T10:33:28.866Z,41.82
2022-09-17T10:36:07.122Z,41.14
2022-09-17T10:38:40.997Z,41.70
2022-09-17T10:41:29.111Z,41.66
2022-09-17T10:43:59.530Z,41.63
2022-09-17T10:46:34.364Z,41.56
2022-09-17T10:49:22.082Z,41.48
2022-09-17T10:51:52.914Z,41.44
2022-09-17T10:55:10.448Z,41.35
2022-09-17T10:58:11.477Z,41.37
2022-09-17T11:01:05.106Z,41.78
2022-09-17T11:04:17.157Z,41.19
2022-09-17T11:07:36.621Z,41.38
2022-09-17T11:10:20.174Z,41.67
2022-09-17T11:13:16.974Z,41.70
2022-09-17T11:16:09.889Z,41.23
2022-09-17T11:18:45.733Z,41.16
2022-09-17T11:21:52.459Z,41.37
2022-09-17T11:25:00.466Z,41.03
2022-09-17T11:27:59.437Z,41.48
2022-09-17T11:30:43.492Z,41.72
2022-09-17T11:33:32.668Z,41.48
2022-09-17T11:36:13.234Z,41.06
2022-09-17T11:38:49.103Z,41.69
2022-09-17T11:41:26.697Z,41.71
2022-09-17T11:44:11.057Z,41.29
2022-09-17T11:46:47.895Z,41.15
2022-09-17T11:49:33.300Z,41.24
2022-09-17T11:52:13.656Z,41.53
2022-09-17T11:54:53.864Z,41.38
2022-09-17T11:57:33.823Z,41.48
2022-09-17T12:00:15.108Z,41.59
2022-09-17T12:02:56.118Z,41.68
2022-09-17T12:05:33.499Z,41.61
2022-09-17T12:08:14.915Z,41.31
2022-09-17T12:10:55.529Z,41.32
2022-09-17T12:13:47.194Z,41.76
2022-09-17T12:16:25.404Z,41.95
2022-09-17T12:19:04.833Z,41.45
2022-09-17T12:21:42.833Z,41.93
2022-09-17T12:24:24.207Z,41.91
2022-09-17T12:27:18.217Z,41.86
2022-09-17T12:30:13.204Z,41.59
2022-09-17T12:33:15.983Z,41.96
2022-09-17T12:36:14.250Z,41.51
2022-09-17T12:39:06.898Z,41.28
2022-09-17T12:41:54.256Z,41.83
2022-09-17T12:45:02.165Z,41.99
2022-09-17T12:48:25.909Z,41.80
2022-09-17T12:51:12.728Z,41.34
2022-09-17T12:54:09.891Z,41.71
2022-09-17T12:57:00.235Z,41.04
2022-09-17T12:59:36.900Z,41.62
2022-09-17T13:02:20.379Z,41.49
2022-09-17T13:05:38.877Z,41.14
2022-09-17T13:09:02.263Z,41.35
2022-09-17T13:12:00.571Z,41.40
2022-09-17T13:14:49.730Z,41.24
2022-09-17T13:17:30.283Z,41.18
2022-09-17T13:20:14.216Z,41.08
2022-09-17T13:22:50.340Z,41.66
2022-09-17T13:25:23.232Z,41.78
2022-09-17T13:28:08.652Z,41.53
2022-09-17T13:30:58.838Z,41.90
2022-09-17T13:33:58.695Z,41.31
2022-09-17T13:36:51.561Z,41.05
2022-09-17T13:39:47.143Z,41.44
2022-09-17T13:42:29.355Z,41.74
2022-09-17T13:45:13.217Z,41.59
2022-09-17T13:47:55.504Z,41.87
2022-09-17T13:50:33.271Z,41.65
2022-09-17T13:53:21.845Z,41.44
2022-09-17T13:55:55.440Z,41.26
2022-09-17T13:58:30.163Z,41.27
2022-09-17T14:01:02.951Z,41.60
2022-09-17T14:03:57.520Z,41.34
2022-09-17T14:06:54.104Z,41.59
2022-09-17T14:09:54.517Z,41.97
2022-09-17T14:13:19.942Z,41.52
2022-09-17T14:16:04.844Z,42.05
2022-09-17T14:18:47.708Z,41.90
2022-09-17T14:21:28.968Z,41.74
2022-09-17T14:24:03.450Z,41.41
2022-09-17T14:27:17.952Z,42.08
2022-09-17T14:30:21.394Z,41.74
2022-09-17T14:33:06.615Z,41.21
2022-09-17T14:35:44.461Z,42.07
2022-09-17T14:38:22.991Z,41.61
2022-09-17T14:41:02.833Z,41.43
2022-09-17T14:43:47.075Z,41.43
2022-09-17T14:46:24.153Z,41.61
2022-09-17T14:48:55.061Z,41.60
2022-09-17T14:51:33.499Z,41.40
2022-09-17T14:54:23.149Z,41.45
2022-09-17T14:57:02.693Z,41.59
2022-09-17T14:59:53.539Z,41.82
2022-09-17T15:02:45.279Z,42.16
2022-09-17T15:05:33.796Z,41.49
2022-09-17T15:08:17.851Z,41.97
2022-09-17T15:10:55.501Z,42.18
2022-09-17T15:13:30.859Z,41.58
2022-09-17T15:16:13.201Z,42.17
2022-09-17T15:18:50.719Z,42.14
2022-09-17T15:21:32.446Z,41.62
2022-09-17T15:24:13.553Z,41.74
2022-09-17T15:26:47.792Z,42.10
2022-09-17T15:29:18.721Z,41.71
2022-09-17T15:31:51.203Z,42.04
2022-09-17T15:34:21.884Z,41.83
2022-09-17T15:37:07.962Z,41.66
2022-09-17T15:39:46.367Z,41.67
2022-09-17T15:42:27.483Z,42.17
2022-09-17T15:45:20.419Z,42.23
2022-09-17T15:47:57.956Z,42.11
2022-09-17T15:50:31.030Z,41.55
2022-09-17T15:53:25.789Z,41.63
2022-09-17T15:56:10.224Z,41.61
2022-09-17T15:58:56.091Z,41.53
2022-09-17T16:01:57.085Z,42.06
2022-09-17T16:04:33.709Z,42.09
2022-09-17T16:07:32.624Z,42.17
2022-09-17T16:10:03.047Z,41.55
2022-09-17T16:12:34.714Z,42.10
2022-09-17T16:15:06.195Z,41.85
2022-09-17T16:17:46.957Z,42.28
2022-09-17T16:20:24.061Z,41.58
2022-09-17T16:22:57.790Z,42.08
2022-09-17T16:25:31.234Z,41.61
2022-09-17T16:28:05.744Z,41.68
2022-09-17T16:30:36.373Z,42.27
2022-09-17T16:33:07.382Z,42.15
2022-09-17T16:35:40.743Z,41.67
2022-09-17T16:38:12.379Z,41.70
2022-09-17T16:40:48.013Z,41.67
2022-09-17T16:43:18.252Z,41.86
2022-09-17T16:46:02.155Z,42.02
2022-09-17T16:48:32.763Z,42.27
2022-09-17T16:51:10.116Z,42.29
2022-09-17T16:53:41.003Z,41.72
2022-09-17T16:56:12.030Z,42.29
2022-09-17T16:58:42.355Z,42.36
2022-09-17T17:01:14.600Z,42.42
2022-09-17T17:03:46.247Z,42.11
2022-09-17T17:06:23.219Z,41.74
2022-09-17T17:08:53.916Z,41.81
2022-09-17T17:11:24.310Z,42.26
2022-09-17T17:13:56.358Z,42.36
2022-09-17T17:16:26.505Z,42.09
2022-09-17T17:18:56.752Z,42.05
2022-09-17T17:21:29.085Z,42.45
2022-09-17T17:23:59.610Z,41.93
2022-09-17T17:26:29.326Z,41.95
2022-09-17T17:29:00.260Z,42.19
2022-09-17T17:31:30.232Z,42.64
2022-09-17T17:34:02.076Z,41.79
2022-09-17T17:36:34.708Z,42.61
2022-09-17T17:39:05.314Z,42.64
2022-09-17T17:41:36.046Z,42.29
2022-09-17T17:44:06.591Z,42.04
2022-09-17T17:46:37.056Z,42.63
2022-09-17T17:49:07.717Z,42.15
2022-09-17T17:51:40.302Z,42.44
2022-09-17T17:54:11.092Z,42.33
2022-09-17T17:56:41.612Z,42.53
2022-09-17T17:59:12.177Z,42.70
2022-09-17T18:01:42.968Z,42.77
2022-09-17T18:04:13.636Z,42.23
2022-09-17T18:06:45.478Z,42.75
2022-09-17T18:09:16.180Z,42.44
2022-09-17T18:11:46.418Z,42.68
2022-09-17T18:14:17.267Z,42.54
2022-09-17T18:16:47.884Z,42.88
2022-09-17T18:19:18.485Z,42.46
2022-09-17T18:21:50.990Z,42.36
2022-09-17T18:24:22.229Z,42.94
2022-09-17T18:26:53.133Z,42.61
2022-09-17T18:29:24.015Z,42.91
2022-09-17T18:31:55.144Z,42.97
2022-09-17T18:34:26.056Z,43.11
2022-09-17T18:36:58.625Z,43.07
2022-09-17T18:42:19.913Z,42.99
2022-09-17T18:44:49.943Z,42.46
2022-09-17T18:47:24.066Z,42.70
2022-09-17T18:49:54.402Z,42.99
2022-09-17T18:52:26.007Z,42.94
2022-09-17T18:54:56.423Z,42.89
2022-09-17T18:57:26.200Z,43.03
2022-09-17T18:59:58.823Z,42.60
2022-09-17T19:02:29.162Z,43.20
2022-09-17T19:04:59.241Z,42.60
2022-09-17T19:07:32.047Z,43.15
2022-09-17T19:10:03.375Z,43.21
2022-09-17T19:12:34.415Z,42.66
2022-09-17T19:15:04.711Z,43.28
2022-09-17T19:17:35.364Z,43.16
2022-09-17T19:20:06.807Z,42.99
2022-09-17T19:22:38.909Z,43.18
2022-09-17T19:25:10.840Z,42.55
2022-09-17T19:27:41.489Z,43.34
2022-09-17T19:30:14.494Z,43.07
2022-09-17T19:32:50.038Z,42.92
2022-09-17T19:35:21.306Z,43.29
2022-09-17T19:37:54.553Z,43.39
2022-09-17T19:40:25.703Z,43.31
2022-09-17T19:42:56.854Z,42.73
2022-09-17T19:45:27.492Z,42.93
2022-09-17T19:48:02.194Z,43.28
2022-09-17T19:50:36.004Z,43.28
2022-09-17T19:53:07.927Z,43.46
2022-09-17T19:55:41.418Z,43.45
2022-09-17T19:58:11.799Z,42.87
2022-09-17T20:00:42.313Z,43.23
2022-09-17T20:03:12.802Z,43.05
2022-09-17T20:05:43.438Z,43.34
2022-09-17T20:08:15.925Z,43.40
2022-09-17T20:10:46.888Z,43.05
2022-09-17T20:13:20.041Z,43.38
2022-09-17T20:15:50.439Z,43.31
2022-09-17T20:18:23.528Z,43.36
2022-09-17T20:20:54.747Z,43.17
2022-09-17T20:23:31.792Z,43.11
2022-09-17T20:26:11.795Z,43.55
2022-09-17T20:28:42.727Z,43.04
2022-09-17T20:31:17.191Z,43.48
2022-09-17T20:33:49.247Z,43.10
2022-09-17T20:36:22.284Z,43.46
2022-09-17T20:39:15.437Z,42.98
2022-09-17T20:41:46.825Z,43.71
2022-09-17T20:44:18.303Z,43.10
2022-09-17T20:46:49.066Z,43.13
2022-09-17T20:49:19.689Z,43.05
2022-09-17T20:51:50.202Z,43.71
2022-09-17T20:54:22.069Z,43.06
2022-09-17T20:56:52.720Z,43.80
2022-09-17T20:59:25.553Z,43.75
2022-09-17T21:01:56.560Z,43.77
2022-09-17T21:04:27.667Z,43.74
2022-09-17T21:06:57.668Z,43.62
2022-09-17T21:09:29.833Z,43.35
2022-09-17T21:12:00.471Z,43.78
2022-09-17T21:14:30.975Z,43.76
2022-09-17T21:17:01.362Z,43.32
2022-09-17T21:19:31.440Z,43.85
2022-09-17T21:22:01.967Z,43.58
2022-09-17T21:24:33.744Z,43.30
2022-09-17T21:27:03.493Z,43.48
2022-09-17T21:29:34.417Z,43.34
2022-09-17T21:32:05.070Z,43.87
2022-09-17T21:34:35.436Z,43.37
2022-09-17T21:37:06.038Z,43.96
2022-09-17T21:39:38.102Z,43.73
2022-09-17T21:42:08.320Z,43.30
2022-09-17T21:44:39.275Z,43.88
2022-09-17T21:47:12.440Z,44.00
2022-09-17T21:49:44.425Z,43.85
2022-09-17T21:52:14.628Z,43.70
2022-09-17T21:54:47.089Z,43.54
2022-09-17T21:57:17.650Z,43.30
2022-09-17T21:59:48.078Z,43.35
2022-09-17T22:02:18.532Z,43.45
2022-09-17T22:04:48.517Z,43.84
2022-09-17T22:07:18.574Z,43.47
2022-09-17T22:09:51.028Z,43.58
2022-09-17T22:12:21.592Z,43.91
2022-09-17T22:14:52.022Z,43.90
2022-09-17T22:17:23.572Z,43.77
2022-09-17T22:19:53.974Z,43.47
2022-09-17T22:22:24.520Z,43.75
2022-09-17T22:24:56.686Z,43.83
2022-09-17T22:27:27.162Z,43.61
2022-09-17T22:29:57.634Z,43.87
2022-09-17T22:32:29.065Z,43.79
2022-09-17T22:34:59.543Z,43.76
2022-09-17T22:37:38.373Z,43.11
2022-09-17T22:40:13.045Z,43.66
2022-09-17T22:42:43.119Z,43.64
2022-09-17T22:45:13.678Z,43.73
2022-09-17T22:47:44.400Z,43.54
2022-09-17T22:50:14.787Z,43.67
2022-09-17T22:52:45.678Z,43.69
2022-09-17T22:55:17.687Z,43.21
2022-09-17T22:57:48.061Z,42.96
2022-09-17T23:00:19.622Z,42.98
2022-09-17T23:02:49.566Z,43.47
2022-09-17T23:05:19.792Z,43.67
2022-09-17T23:07:50.418Z,43.66
2022-09-17T23:10:22.568Z,42.94
2022-09-17T23:12:52.180Z,43.66
2022-09-17T23:15:26.694Z,43.70
2022-09-17T23:17:57.305Z,43.63
2022-09-17T23:20:27.869Z,43.12
2022-09-17T23:22:58.490Z,43.10
2022-09-17T23:25:30.843Z,43.78
2022-09-17T23:28:01.477Z,43.13
2022-09-17T23:30:32.160Z,43.57
2022-09-17T23:33:01.947Z,43.13
2022-09-17T23:35:32.082Z,43.66
2022-09-17T23:38:02.639Z,43.06
2022-09-17T23:40:35.266Z,43.73
2022-09-17T23:43:05.672Z,43.83
2022-09-17T23:45:35.943Z,43.76
2022-09-17T23:48:06.465Z,43.23
2022-09-17T23:50:36.899Z,43.63
2022-09-17T23:53:07.138Z,43.52
2022-09-17T23:55:39.874Z,43.14
2022-09-17T23:58:10.187Z,43.30
